Latest Weather Observations for Bellambi

IDN60801

Issued at 9:35 am EST Wednesday 1 October 2014 (issued every 30 minutes, with the page automatically refreshed every 10 minutes)

About weather observations | Map of weather stations | Latest weather observations for NSW | Other Formats
Station Details ID: 068228 Name: BELLAMBI AWS Lat: -34.37 Lon: 150.93 Height: 10.0 m
Data from the previous 72 hours. | See also: Recent months at Bellambi
Date/Time
EST
Temp
°C
App
Temp
°C
Dew
Point
Rel
Hum
%
Delta-T
°C
Wind Press
QNH
hPa
Press
MSL
hPa
Rain
since 9 am
mm
Dir
 
Spd
km/h
Gust
km/h
Spd
kts
Gust
kts
01/09:30am 17.3 8.5 -1.4 28 7.8 SW 35 54 19 29 - - 0.0
01/09:00am 16.7 8.2 -2.9 26 7.9 SW 32 50 17 27 - - 0.0
01/08:46am 16.3 8.5 -3.7 25 7.9 WSW 28 48 15 26 - - 0.0
01/08:30am 15.9 8.2 -3.1 27 7.6 WSW 28 44 15 24 - - 0.0
01/08:00am 15.3 7.2 -3.1 28 7.3 WSW 30 54 16 29 - - 0.0
01/07:30am 15.0 7.3 -2.9 29 7.1 WSW 28 48 15 26 - - 0.0
01/07:22am 14.8 7.0 -3.5 28 7.1 WSW 28 48 15 26 - - 0.0
01/07:00am 14.4 8.1 -0.8 35 6.3 WSW 22 39 12 21 - - 0.0
01/06:30am 13.9 7.3 -0.5 37 5.9 WSW 24 35 13 19 - - 0.0
01/06:06am 13.9 6.5 -0.9 36 6.1 WSW 28 46 15 25 - - 0.0
01/06:00am 13.9 7.2 -0.9 36 6.1 WSW 24 44 13 24 - - 0.0
01/05:30am 14.3 7.5 -1.7 33 6.5 W 24 41 13 22 - - 0.0
01/05:00am 15.3 8.1 -1.7 31 6.9 W 26 41 14 22 - - 0.0
01/04:44am 15.9 8.3 -2.1 29 7.3 W 28 52 15 28 - - 0.0
01/04:30am 16.2 10.0 -0.5 32 7.1 WSW 22 44 12 24 - - 0.0
01/04:20am 16.5 9.1 -0.7 31 7.3 WSW 28 48 15 26 - - 0.0
01/04:00am 16.9 11.6 1.8 36 6.7 WSW 19 24 10 13 - - 0.0
01/03:30am 17.5 11.5 5.1 44 5.9 WSW 26 39 14 21 - - 0.0
01/03:00am 18.1 11.0 5.3 43 6.2 SW 32 48 17 26 - - 0.0
01/02:56am 18.2 11.8 5.4 43 6.2 SW 28 48 15 26 - - 0.0
01/02:30am 18.9 13.2 5.0 40 6.7 SW 24 35 13 19 - - 0.0
01/02:04am 19.9 12.5 4.8 37 7.3 SW 33 52 18 28 - - 0.0
01/02:00am 19.9 12.1 4.8 37 7.3 SW 35 52 19 28 - - 0.0
01/01:30am 22.9 14.5 1.3 24 10.0 WSW 35 67 19 36 - - 0.0
01/01:21am 23.5 14.6 0.6 22 10.5 WSW 37 57 20 31 - - 0.0
01/01:20am 23.6 13.6 0.7 22 10.6 WSW 43 57 23 31 - - 0.0
01/01:00am 24.0 19.9 -0.3 20 11.0 W 11 22 6 12 - - 0.0
01/12:30am 24.0 20.7 2.2 24 10.4 NW 9 17 5 9 - - 0.0
01/12:00am 24.7 19.8 -0.4 19 11.4 WNW 15 28 8 15 - - 0.0
 
Date/Time
EST
Temp
°C
App
Temp
°C
Dew
Point
Rel
Hum
%
Delta-T
°C
Wind Press
QNH
hPa
Press
MSL
hPa
Rain
since 9 am
mm
Dir
 
Spd
km/h
Gust
km/h
Spd
kts
Gust
kts
30/11:30pm 25.6 19.9 -0.5 18 12.0 W 19 28 10 15 - - 0.0
30/11:00pm 26.1 18.8 0.0 18 12.1 WNW 28 39 15 21 - - 0.0
30/10:57pm 26.1 18.5 0.7 19 11.9 NW 30 39 16 21 - - 0.0
30/10:30pm 25.5 22.2 2.2 22 11.2 W 9 20 5 11 - - 0.0
30/10:00pm 25.9 21.8 4.4 25 10.8 NW 15 28 8 15 - - 0.0
30/09:30pm 26.0 21.9 4.5 25 10.8 WNW 15 26 8 14 - - 0.0
30/09:00pm 25.4 23.0 5.1 27 10.3 NW 7 11 4 6 - - 0.0
30/08:30pm 26.1 23.7 5.1 26 10.7 NW 7 11 4 6 - - 0.0
30/08:00pm 26.1 22.5 6.7 29 10.2 NW 15 20 8 11 - - 0.0
30/07:30pm 26.9 21.5 6.3 27 10.8 NW 24 32 13 17 - - 0.0
30/07:00pm 27.0 21.1 5.9 26 11.0 NNW 26 33 14 18 - - 0.0
30/06:30pm 27.8 22.7 6.0 25 11.4 NNW 22 32 12 17 - - 0.0
30/06:00pm 28.7 22.1 4.2 21 12.5 NNW 28 43 15 23 - - 0.0
30/05:30pm 29.4 20.6 3.4 19 13.1 NNW 39 59 21 32 - - 0.0
30/05:29pm 29.7 20.8 5.1 21 12.8 NNW 41 59 22 32 - - 0.0
30/05:00pm 30.5 24.9 3.5 18 13.7 NW 22 43 12 23 - - 0.0
30/04:30pm 31.8 26.7 2.9 16 14.7 WNW 19 28 10 15 - - 0.0
30/04:00pm 31.9 24.3 3.8 17 14.5 NW 33 52 18 28 - - 0.0
30/03:30pm 31.9 24.5 3.8 17 14.5 NW 32 52 17 28 - - 0.0
30/03:23pm 32.2 25.0 3.2 16 14.8 WNW 30 43 16 23 - - 0.0
30/03:04pm 31.4 21.9 5.0 19 13.8 NNW 44 63 24 34 - - 0.0
30/03:00pm 31.3 21.2 5.7 20 13.6 NNW 48 63 26 34 - - 0.0
30/02:57pm 30.9 23.6 4.6 19 13.7 NNW 32 57 17 31 - - 0.0
30/02:30pm 32.5 25.5 4.3 17 14.7 NW 30 43 16 23 - - 0.0
30/02:00pm 32.5 26.1 5.1 18 14.5 NW 28 43 15 23 - - 0.0
30/01:39pm 31.6 24.6 5.9 20 13.7 NNW 32 50 17 27 - - 0.0
30/01:30pm 31.6 25.8 7.9 23 13.1 NNW 28 33 15 18 - - 0.0
30/01:14pm 31.2 23.3 4.1 18 14.0 N 35 56 19 30 - - 0.0
30/01:00pm 31.5 25.0 6.5 21 13.4 NNW 30 39 16 21 - - 0.0
30/12:30pm 30.5 24.3 7.7 24 12.4 NNW 30 44 16 24 - - 0.0
30/12:00pm 30.1 23.3 6.7 23 12.5 NNW 32 46 17 25 - - 0.0
30/11:30am 29.6 23.2 8.6 27 11.6 NNW 32 50 17 27 - - 0.0
30/11:25am 29.5 22.7 6.8 24 12.1 NNW 32 50 17 27 - - 0.0
30/11:00am 29.2 22.6 6.0 23 12.2 NNW 30 44 16 24 - - 0.0
30/10:30am 28.6 21.6 6.7 25 11.6 NNW 33 56 18 30 - - 0.0
30/10:10am 28.1 22.2 7.4 27 11.1 NNW 28 50 15 27 - - 0.0
30/10:00am 27.8 21.3 6.6 26 11.2 NNW 30 43 16 23 - - 0.0
30/09:30am 26.7 21.0 8.2 31 10.0 NNW 28 46 15 25 - - 0.0
30/09:26am 26.8 20.9 7.3 29 10.4 NNW 28 46 15 25 - - 0.0
30/09:00am 24.8 20.0 7.4 33 9.2 NNW 22 32 12 17 - - 0.0
30/08:30am 25.6 20.6 8.1 33 9.4 NNW 24 37 13 20 - - 0.0
30/08:00am 24.3 20.2 7.9 35 8.7 NW 19 26 10 14 - - 0.0
30/07:30am 21.0 16.2 8.9 46 6.4 WNW 24 28 13 15 - - 0.0
30/07:00am 20.7 16.2 8.4 45 6.4 WNW 22 30 12 16 - - 0.0
30/06:30am 20.7 16.2 8.7 46 6.3 WNW 22 28 12 15 - - 0.0
30/06:00am 19.2 14.5 9.4 53 5.2 WNW 24 30 13 16 - - 0.0
30/05:30am 17.2 15.2 11.5 69 3.1 NNW 13 19 7 10 - - 0.0
30/05:00am 17.6 17.7 13.9 79 2.1 NNW 6 11 3 6 - - 0.0
30/04:30am 16.1 17.4 14.1 88 1.1 CALM 0 6 0 3 - - 0.0
30/04:00am 15.2 15.0 13.1 87 1.2 N 6 7 3 4 - - 0.0
30/03:30am 15.2 15.0 12.9 86 1.3 NNE 6 9 3 5 - - 0.0
30/03:00am 14.8 14.8 12.3 85 1.4 N 4 7 2 4 - - 0.0
30/02:30am 15.6 15.4 13.1 85 1.4 N 6 7 3 4 - - 0.0
30/02:00am 15.6 15.2 13.1 85 1.4 NNW 7 9 4 5 - - 0.0
30/01:30am 15.8 15.4 13.1 84 1.5 NNW 7 9 4 5 - - 0.0
30/01:00am 16.2 15.6 13.5 84 1.5 NNW 9 11 5 6 - - 0.0
30/12:30am 16.3 16.0 13.4 83 1.6 N 7 9 4 5 - - 0.0
30/12:00am 16.7 15.8 13.8 83 1.6 N 11 15 6 8 - - 0.0
 
Date/Time
EST
Temp
°C
App
Temp
°C
Dew
Point
Rel
Hum
%
Delta-T
°C
Wind Press
QNH
hPa
Press
MSL
hPa
Rain
since 9 am
mm
Dir
 
Spd
km/h
Gust
km/h
Spd
kts
Gust
kts
29/11:30pm 16.8 15.6 14.1 84 1.5 N 13 15 7 8 - - 0.0
29/11:00pm 17.0 16.3 14.3 84 1.5 N 11 15 6 8 - - 0.0
29/10:30pm 17.0 16.6 14.1 83 1.7 N 9 11 5 6 - - 0.0
29/10:00pm 17.0 17.0 14.1 83 1.7 N 7 9 4 5 - - 0.0
29/09:30pm 16.9 17.3 13.6 81 1.9 NNW 4 9 2 5 - - 0.0
29/09:00pm 16.9 17.1 13.2 79 2.1 SW 4 9 2 5 - - 0.0
29/08:30pm 17.4 16.9 13.7 79 2.1 S 9 11 5 6 - - 0.0
29/08:00pm 17.5 17.3 13.6 78 2.2 SSW 7 13 4 7 - - 0.0
29/07:30pm 18.1 15.6 14.0 77 2.3 S 20 24 11 13 - - 0.0
29/07:00pm 18.4 14.8 14.3 77 2.4 S 26 30 14 16 - - 0.0
29/06:30pm 18.7 15.2 14.4 76 2.5 S 26 32 14 17 - - 0.0
29/06:00pm 18.8 15.1 14.9 78 2.3 SSW 28 35 15 19 - - 0.0
29/05:30pm 19.4 15.7 15.1 76 2.5 S 28 33 15 18 - - 0.0
29/05:16pm 20.3 16.3 14.2 68 3.5 S 28 41 15 22 - - 0.0
29/05:00pm 22.3 23.3 14.4 61 4.6 ENE 2 7 1 4 - - 0.0
29/04:30pm 22.7 22.5 14.8 61 4.7 NNE 9 13 5 7 - - 0.0
29/04:00pm 22.1 21.3 15.2 65 4.1 N 13 19 7 10 - - 0.0
29/03:30pm 22.2 22.9 16.0 68 3.7 N 7 11 4 6 - - 0.0
29/03:00pm 22.9 22.2 15.5 63 4.4 ENE 13 19 7 10 - - 0.0
29/02:30pm 23.1 21.2 15.2 61 4.7 E 19 24 10 13 - - 0.0
29/02:00pm 21.6 19.4 15.9 70 3.4 E 22 28 12 15 - - 0.0
29/01:30pm 22.1 20.1 15.5 66 3.9 E 20 28 11 15 - - 0.0
29/01:00pm 24.1 22.4 13.6 52 6.1 E 15 19 8 10 - - 0.0
29/12:30pm 23.5 21.3 14.8 58 5.2 NE 20 28 11 15 - - 0.0
29/12:00pm 23.4 19.3 12.7 51 6.1 NE 26 39 14 21 - - 0.0
29/11:30am 22.2 17.2 13.3 57 5.1 ENE 32 35 17 19 - - 0.0
29/11:00am 21.7 17.6 12.8 57 5.1 ENE 26 33 14 18 - - 0.0
29/10:30am 21.5 16.6 12.6 57 5.0 ENE 30 33 16 18 - - 0.0
29/10:00am 21.6 17.5 12.7 57 5.1 NE 26 30 14 16 - - 0.0
29/09:30am 21.2 18.0 13.1 60 4.6 NNE 22 28 12 15 - - 0.0
29/09:00am 20.6 17.2 11.2 55 5.2 NE 20 26 11 14 - - 0.0
29/08:30am 20.1 17.2 11.1 56 4.9 ENE 17 22 9 12 - - 0.0
29/08:00am 20.0 17.3 10.4 54 5.2 ESE 15 19 8 10 - - 0.0
29/07:30am 19.7 19.2 7.8 46 6.1 CALM 0 4 0 2 - - 0.0
29/07:00am 18.7 15.6 10.3 58 4.5 N 17 24 9 13 - - 0.0
29/06:30am 18.7 15.6 10.3 58 4.5 N 17 20 9 11 - - 0.0
29/06:00am 17.1 14.7 6.9 51 5.1 WNW 9 11 5 6 - - 0.0
29/05:30am 18.5 14.5 6.7 46 5.9 N 17 22 9 12 - - 0.0
29/05:00am 18.0 14.1 9.4 57 4.5 NNE 20 26 11 14 - - 0.0
29/04:30am 18.0 13.3 9.1 56 4.6 NNE 24 30 13 16 - - 0.0
29/04:00am 19.6 15.3 7.7 46 6.1 N 20 28 11 15 - - 0.0
29/03:30am 19.2 15.7 10.2 56 4.8 N 19 24 10 13 - - 0.0
29/03:00am 19.0 15.4 10.6 58 4.5 N 20 24 11 13 - - 0.0
29/02:30am 19.6 16.0 9.8 53 5.2 N 19 26 10 14 - - 0.0
29/02:00am 18.1 14.8 11.7 66 3.5 N 20 24 11 13 - - 0.0
29/01:30am 17.9 14.9 12.1 69 3.2 N 19 24 10 13 - - 0.0
29/01:00am 17.9 14.9 12.6 71 3.0 N 20 24 11 13 - - 0.0
29/12:30am 16.9 15.0 11.8 72 2.8 NNW 13 19 7 10 - - 0.0
29/12:00am 16.6 15.2 10.9 69 3.1 NW 9 13 5 7 - - 0.0
 
Date/Time
EST
Temp
°C
App
Temp
°C
Dew
Point
Rel
Hum
%
Delta-T
°C
Wind Press
QNH
hPa
Press
MSL
hPa
Rain
since 9 am
mm
Dir
 
Spd
km/h
Gust
km/h
Spd
kts
Gust
kts
28/11:30pm 17.8 16.5 12.5 71 2.9 N 11 13 6 7 - - 0.0
28/11:00pm 17.9 13.9 11.7 67 3.4 N 24 32 13 17 - - 0.0
28/10:30pm 16.9 15.7 11.6 71 2.9 NNW 9 15 5 8 - - 0.0
28/10:00pm 16.4 14.7 11.1 71 2.8 NW 11 15 6 8 - - 0.0
28/09:30pm 17.0 16.0 11.1 68 3.2 W 7 11 4 6 - - 0.0
28/09:00pm 17.8 14.5 11.6 67 3.4 NW 20 28 11 15 - - 0.0
28/08:30pm 16.8 16.6 11.7 72 2.8 NW 4 13 2 7 - - 0.0
28/08:00pm 18.1 16.7 12.3 69 3.2 WNW 11 17 6 9 - - 0.0
28/07:30pm 18.5 14.5 12.9 70 3.1 N 26 33 14 18 - - 0.0
28/07:00pm 18.4 14.3 13.9 75 2.6 NE 28 33 15 18 - - 0.0
28/06:30pm 18.7 13.9 14.0 74 2.7 N 32 37 17 20 - - 0.0
28/06:00pm 18.5 13.8 14.2 76 2.5 NNE 32 39 17 21 - - 0.0
28/05:30pm 18.8 13.1 14.3 75 2.6 NNE 37 48 20 26 - - 0.0
28/05:00pm 18.9 12.1 14.4 75 2.6 NNE 43 48 23 26 - - 0.0
28/04:30pm 19.0 12.0 14.3 74 2.7 NNE 44 56 24 30 - - 0.0
28/04:00pm 19.2 11.8 14.2 73 2.9 NE 46 56 25 30 - - 0.0
28/03:30pm 19.3 11.7 13.7 70 3.2 NE 46 54 25 29 - - 0.0
28/03:00pm 19.6 12.6 14.2 71 3.1 NE 44 54 24 29 - - 0.0
28/02:30pm 19.6 12.2 14.2 71 3.1 NE 46 54 25 29 - - 0.0
28/02:00pm 19.8 13.0 14.4 71 3.1 NE 43 52 23 28 - - 0.0
28/01:30pm 19.9 13.6 14.5 71 3.1 NE 41 48 22 26 - - 0.0
28/01:00pm 20.1 14.0 14.2 69 3.4 NE 39 44 21 24 - - 0.0
28/12:30pm 21.3 17.0 14.5 65 4.0 NE 30 37 16 20 - - 0.0
28/12:00pm 22.3 19.1 10.1 46 6.6 N 17 24 9 13 - - 0.0
28/11:30am 22.5 19.1 9.3 43 7.1 N 17 22 9 12 - - 0.0
28/11:00am 22.1 18.2 8.6 42 7.1 N 19 24 10 13 - - 0.0
28/10:30am 22.2 18.4 9.0 43 7.0 NW 19 22 10 12 - - 0.0
28/10:00am 21.2 17.1 8.5 44 6.7 WNW 20 28 11 15 - - 0.0

Other Formats:

Comma delimited format used in spreadsheet applications
http://www.bom.gov.au/fwo/IDN60801/IDN60801.94749.axf

JavaScript Object Notation format (JSON) in row-major order
http://www.bom.gov.au/fwo/IDN60801/IDN60801.94749.json